Time;durP1;ratioP1;P1;durP2;ratioP2;P2;SDS_P1;SDS_P2;PMS_P1;PMS_P2;Temp;Humidity;BMP_temperature;BMP_pressure;BME280_temperature;BME280_humidity;BME280_pressure;Samples;Min_cycle;Max_cycle;Signal;HPM_P1;HPM_P2
2023/06/14 00:00:32;;;;;;;6.57;2.10;;;16.00;87.60;;;;;;5016020;28;20049;-69
2023/06/14 00:02:59;;;;;;;4.28;2.03;;;16.00;87.90;;;;;;5032919;28;20095;-69
2023/06/14 00:05:26;;;;;;;7.97;2.35;;;15.90;87.70;;;;;;5032853;28;20519;-69
2023/06/14 00:07:53;;;;;;;5.70;1.90;;;15.90;88.20;;;;;;5033078;28;20103;-69
2023/06/14 00:10:20;;;;;;;3.35;1.90;;;15.90;88.60;;;;;;5032800;28;20080;-69
2023/06/14 00:12:49;;;;;;;6.57;2.03;;;15.80;89.20;;;;;;5032193;28;20041;-69
2023/06/14 00:15:16;;;;;;;3.88;2.20;;;15.80;89.20;;;;;;5017005;28;20060;-71
2023/06/14 00:17:47;;;;;;;5.97;2.00;;;15.80;89.60;;;;;;5025175;28;20064;-70
2023/06/14 00:20:14;;;;;;;6.50;1.77;;;15.80;89.80;;;;;;5039575;28;20077;-69
2023/06/14 00:22:41;;;;;;;4.28;1.85;;;15.70;90.10;;;;;;5032483;28;20065;-70
2023/06/14 00:25:08;;;;;;;4.50;1.75;;;15.70;90.20;;;;;;5031719;28;20049;-70
2023/06/14 00:27:35;;;;;;;6.07;2.22;;;15.70;90.50;;;;;;5031627;28;20053;-70
2023/06/14 00:30:03;;;;;;;4.45;1.80;;;15.60;90.40;;;;;;5032193;28;20489;-69
2023/06/14 00:32:30;;;;;;;3.33;1.73;;;15.60;90.80;;;;;;5029687;28;20049;-69
2023/06/14 00:34:57;;;;;;;5.18;2.00;;;15.60;90.90;;;;;;5014629;28;20049;-69
2023/06/14 00:37:24;;;;;;;7.25;2.15;;;15.50;91.30;;;;;;5014677;28;20045;-69
2023/06/14 00:39:50;;;;;;;5.45;1.90;;;15.50;91.10;;;;;;5013977;28;20049;-69
2023/06/14 00:42:27;;;;;;;4.55;1.70;;;15.40;91.30;;;;;;5014626;28;20492;-69
2023/06/14 00:44:56;;;;;;;3.85;1.90;;;15.40;91.70;;;;;;5032087;28;20555;-70
2023/06/14 00:47:24;;;;;;;4.70;1.52;;;15.30;91.80;;;;;;5031446;28;20049;-70
2023/06/14 00:49:53;;;;;;;4.10;1.40;;;15.30;91.80;;;;;;5032193;28;20416;-71
2023/06/14 00:52:21;;;;;;;4.88;1.73;;;15.30;92.20;;;;;;5012681;28;20433;-69
2023/06/14 00:54:48;;;;;;;4.05;1.30;;;15.20;92.30;;;;;;5012522;28;20045;-70
2023/06/14 00:57:15;;;;;;;7.15;1.98;;;15.20;92.30;;;;;;4995533;28;20554;-70
2023/06/14 00:59:44;;;;;;;4.88;1.60;;;15.20;92.50;;;;;;5013027;28;20072;-70
2023/06/14 01:02:11;;;;;;;4.22;1.60;;;14.60;92.70;;;;;;5012436;28;20053;-70
2023/06/14 01:04:41;;;;;;;4.63;1.50;;;15.20;92.70;;;;;;5012161;28;20440;-69
2023/06/14 01:07:14;;;;;;;4.50;1.67;;;15.10;93.00;;;;;;5014464;28;20095;-70
2023/06/14 01:09:55;;;;;;;5.18;1.60;;;15.10;93.40;;;;;;5032046;28;20095;-70
2023/06/14 01:12:31;;;;;;;3.50;1.70;;;15.10;93.60;;;;;;5014234;28;20088;-70
2023/06/14 01:15:00;;;;;;;5.30;1.70;;;15.10;93.50;;;;;;5013736;28;20061;-70
2023/06/14 01:17:31;;;;;;;4.88;1.50;;;15.00;93.70;;;;;;5014371;28;20400;-69
2023/06/14 01:20:00;;;;;;;4.28;1.60;;;15.10;94.10;;;;;;5030672;28;20045;-69
2023/06/14 01:22:27;;;;;;;5.20;1.80;;;15.00;94.10;;;;;;5024126;28;20103;-69
2023/06/14 01:24:56;;;;;;;7.38;1.75;;;14.90;94.40;;;;;;5030307;28;20527;-69
2023/06/14 01:27:28;;;;;;;3.85;1.98;;;14.90;94.50;;;;;;5031901;28;20064;-70
2023/06/14 01:29:57;;;;;;;4.05;1.80;;;14.90;94.70;;;;;;5029869;28;20045;-70
2023/06/14 01:32:25;;;;;;;4.22;1.50;;;14.90;94.80;;;;;;5031769;28;20050;-70
2023/06/14 01:34:52;;;;;;;3.65;1.70;;;14.90;94.90;;;;;;5030760;28;20050;-70
2023/06/14 01:37:20;;;;;;;2.83;1.65;;;14.80;95.20;;;;;;5031074;28;20049;-71
2023/06/14 01:39:49;;;;;;;4.15;1.92;;;14.80;95.20;;;;;;5033949;28;20096;-68
2023/06/14 01:42:18;;;;;;;3.53;1.45;;;14.70;95.50;;;;;;5034033;28;20060;-69
2023/06/14 01:44:46;;;;;;;7.68;1.98;;;14.70;96.00;;;;;;5033114;28;20546;-69
2023/06/14 01:47:13;;;;;;;2.72;1.40;;;14.70;95.70;;;;;;5033857;28;20125;-69
2023/06/14 01:49:40;;;;;;;5.35;1.90;;;14.70;96.60;;;;;;5033329;28;20053;-68
2023/06/14 01:52:09;;;;;;;4.50;1.70;;;14.60;96.30;;;;;;5033722;28;20120;-69
2023/06/14 01:54:41;;;;;;;8.88;2.03;;;14.60;96.60;;;;;;5033567;28;20038;-68
2023/06/14 01:57:08;;;;;;;3.50;1.65;;;14.60;97.10;;;;;;5032395;28;20049;-69
2023/06/14 01:59:36;;;;;;;4.72;1.92;;;14.50;97.00;;;;;;5034835;28;20455;-69
2023/06/14 02:02:04;;;;;;;5.07;1.50;;;14.50;97.50;;;;;;5033482;28;20050;-69
2023/06/14 02:04:31;;;;;;;3.90;1.60;;;14.50;97.70;;;;;;5034127;28;20045;-68
2023/06/14 02:06:58;;;;;;;4.60;1.90;;;14.50;98.00;;;;;;5034795;28;20552;-70
2023/06/14 02:09:25;;;;;;;6.72;2.22;;;14.50;98.60;;;;;;5038160;28;20057;-69
2023/06/14 02:11:52;;;;;;;6.47;2.10;;;14.50;99.00;;;;;;5040328;28;20045;-69
2023/06/14 02:14:19;;;;;;;2.97;1.40;;;14.40;99.40;;;;;;5036480;28;20103;-70
2023/06/14 02:16:48;;;;;;;6.88;2.38;;;14.50;99.40;;;;;;5034400;28;20516;-70
2023/06/14 02:19:16;;;;;;;3.20;1.83;;;14.50;99.60;;;;;;5033989;28;20084;-69
2023/06/14 02:21:43;;;;;;;4.57;1.98;;;14.40;99.80;;;;;;5034239;28;20049;-69
2023/06/14 02:24:10;;;;;;;3.55;1.70;;;14.40;99.90;;;;;;5034239;28;20107;-69
2023/06/14 02:26:37;;;;;;;3.92;2.03;;;14.30;99.90;;;;;;5032704;28;20512;-70
2023/06/14 02:29:05;;;;;;;5.10;1.98;;;14.30;99.90;;;;;;5016641;28;20041;-69
2023/06/14 02:31:32;;;;;;;4.05;1.83;;;14.30;99.90;;;;;;5014851;28;20404;-69
2023/06/14 02:34:00;;;;;;;5.80;2.10;;;14.30;99.90;;;;;;5015850;28;20111;-69
2023/06/14 02:36:29;;;;;;;4.15;2.25;;;14.30;99.90;;;;;;5034031;28;20489;-70
2023/06/14 02:38:57;;;;;;;3.08;1.75;;;14.30;99.90;;;;;;5015580;28;20076;-70
2023/06/14 02:41:24;;;;;;;3.58;1.80;;;14.20;99.90;;;;;;5016471;28;20115;-69
2023/06/14 02:43:51;;;;;;;7.82;2.03;;;14.20;99.90;;;;;;4999315;28;20046;-69
2023/06/14 02:46:18;;;;;;;5.57;2.20;;;14.20;99.90;;;;;;4996806;28;20163;-70
2023/06/14 02:48:45;;;;;;;3.92;2.33;;;14.30;99.90;;;;;;5014549;28;20084;-70
2023/06/14 02:51:13;;;;;;;6.63;2.42;;;14.20;99.90;;;;;;4996829;28;20103;-69
2023/06/14 02:53:40;;;;;;;5.75;2.03;;;14.20;99.90;;;;;;5013948;28;20439;-69
2023/06/14 02:56:07;;;;;;;4.95;2.67;;;14.20;99.90;;;;;;4996928;28;20045;-70
2023/06/14 02:58:34;;;;;;;3.97;2.10;;;14.30;99.90;;;;;;5014443;28;20064;-69
2023/06/14 03:01:03;;;;;;;4.57;2.05;;;14.30;99.90;;;;;;5032839;28;20053;-69
2023/06/14 03:03:30;;;;;;;5.40;2.40;;;14.30;99.90;;;;;;5033322;28;20115;-69
2023/06/14 03:05:58;;;;;;;5.82;2.15;;;14.30;99.90;;;;;;5033398;28;20107;-68
2023/06/14 03:08:27;;;;;;;6.63;2.63;;;14.30;99.90;;;;;;5015578;28;20449;-69
2023/06/14 03:10:55;;;;;;;6.13;2.03;;;14.30;99.90;;;;;;5030559;28;20123;-69
2023/06/14 03:13:23;;;;;;;6.30;1.90;;;14.40;99.90;;;;;;5033317;28;20057;-69
2023/06/14 03:15:51;;;;;;;3.90;2.60;;;14.40;99.90;;;;;;5015078;28;20405;-70
2023/06/14 03:18:19;;;;;;;5.78;2.40;;;14.40;99.90;;;;;;5015800;28;20061;-69
2023/06/14 03:20:46;;;;;;;4.95;2.38;;;14.40;99.90;;;;;;5015531;28;20045;-68
2023/06/14 03:23:13;;;;;;;5.15;2.60;;;14.40;99.90;;;;;;5012155;28;20452;-69
2023/06/14 03:25:42;;;;;;;5.82;2.20;;;14.40;99.90;;;;;;4997875;28;20093;-69
2023/06/14 03:28:09;;;;;;;5.03;2.20;;;14.50;99.90;;;;;;5010916;28;20041;-70
2023/06/14 03:30:36;;;;;;;4.78;2.28;;;14.50;99.90;;;;;;5013275;28;20057;-70
2023/06/14 03:33:04;;;;;;;3.92;2.40;;;14.50;99.90;;;;;;5013414;28;20516;-70
2023/06/14 03:35:31;;;;;;;5.30;2.47;;;14.50;99.90;;;;;;5011476;28;20069;-69
2023/06/14 03:37:58;;;;;;;5.43;2.50;;;14.50;99.90;;;;;;5013461;28;20468;-70
2023/06/14 03:40:26;;;;;;;5.85;2.33;;;14.50;99.90;;;;;;5013227;28;20116;-69
2023/06/14 03:42:55;;;;;;;5.45;2.63;;;14.60;99.90;;;;;;5012699;28;20088;-69
2023/06/14 03:45:22;;;;;;;4.60;2.22;;;14.60;99.90;;;;;;5009913;28;20409;-70
2023/06/14 03:47:50;;;;;;;4.47;2.55;;;15.10;99.90;;;;;;5012071;28;20408;-70
2023/06/14 03:50:19;;;;;;;5.63;2.25;;;15.40;99.90;;;;;;5012127;28;20165;-69
2023/06/14 03:52:46;;;;;;;9.23;2.65;;;15.90;99.90;;;;;;5004399;28;20180;-70
2023/06/14 03:55:16;;;;;;;5.40;2.15;;;16.10;99.90;;;;;;5010592;28;20065;-70
2023/06/14 03:57:43;;;;;;;4.40;2.45;;;16.20;99.90;;;;;;5011404;28;20132;-70
2023/06/14 04:00:15;;;;;;;10.35;3.03;;;16.50;99.90;;;;;;5011898;28;20046;-70
2023/06/14 04:02:43;;;;;;;8.00;2.53;;;16.80;99.90;;;;;;5011204;28;20053;-70
2023/06/14 04:05:10;;;;;;;4.15;2.25;;;16.80;99.90;;;;;;5014458;28;20046;-69
2023/06/14 04:07:40;;;;;;;9.35;2.25;;;17.30;99.90;;;;;;5014702;28;20100;-69
2023/06/14 04:10:08;;;;;;;5.00;2.60;;;17.10;99.90;;;;;;5009039;28;20056;-70
2023/06/14 04:12:35;;;;;;;4.82;2.38;;;17.00;99.90;;;;;;5009738;28;20050;-71
2023/06/14 04:15:02;;;;;;;5.40;2.28;;;17.30;99.90;;;;;;5008943;28;20092;-70
2023/06/14 04:17:32;;;;;;;8.27;2.47;;;17.00;99.90;;;;;;5010915;28;20046;-70
2023/06/14 04:19:59;;;;;;;10.25;2.55;;;17.30;99.90;;;;;;5005220;28;20081;-70
2023/06/14 04:22:28;;;;;;;6.85;3.08;;;17.10;99.90;;;;;;5013016;28;20412;-70
2023/06/14 04:24:56;;;;;;;4.05;2.30;;;17.10;99.90;;;;;;5028221;28;20045;-70
2023/06/14 04:27:25;;;;;;;5.90;2.45;;;17.60;99.90;;;;;;5013651;28;20085;-70
2023/06/14 04:29:56;;;;;;;5.60;2.55;;;17.60;99.90;;;;;;5030435;28;20052;-69
2023/06/14 04:32:25;;;;;;;3.65;2.20;;;17.70;99.90;;;;;;5030171;28;20571;-69
2023/06/14 04:34:54;;;;;;;5.60;2.80;;;17.90;99.90;;;;;;5013181;28;20045;-70
2023/06/14 04:37:21;;;;;;;7.65;2.72;;;17.90;99.90;;;;;;5029307;28;20436;-70
2023/06/14 04:39:48;;;;;;;4.80;2.15;;;17.70;99.90;;;;;;5028505;28;20120;-69
2023/06/14 04:42:16;;;;;;;6.53;2.58;;;17.40;99.90;;;;;;5030243;28;20049;-71
2023/06/14 04:44:43;;;;;;;4.25;2.58;;;17.20;99.90;;;;;;5011962;28;20059;-70
2023/06/14 04:47:11;;;;;;;5.60;2.50;;;16.90;99.90;;;;;;5012682;28;20053;-70
2023/06/14 04:49:38;;;;;;;4.22;2.38;;;16.90;99.90;;;;;;5013387;28;20053;-69
2023/06/14 04:52:07;;;;;;;6.57;2.53;;;17.00;99.90;;;;;;5009586;28;20061;-70
2023/06/14 04:54:36;;;;;;;6.80;2.80;;;17.00;99.90;;;;;;5010299;28;20050;-71
2023/06/14 04:57:04;;;;;;;7.13;2.63;;;16.90;99.90;;;;;;5029734;28;20424;-70
2023/06/14 04:59:33;;;;;;;6.78;2.78;;;17.00;99.90;;;;;;5028714;28;20049;-71
2023/06/14 05:02:00;;;;;;;4.30;2.45;;;17.00;99.90;;;;;;5012879;28;20053;-70
2023/06/14 05:04:27;;;;;;;8.32;2.63;;;17.00;99.90;;;;;;5031169;28;20125;-70
2023/06/14 05:06:55;;;;;;;3.92;2.30;;;17.10;99.90;;;;;;5029071;28;20045;-72
2023/06/14 05:09:23;;;;;;;6.13;2.40;;;17.40;99.90;;;;;;5029773;28;20046;-71
2023/06/14 05:11:50;;;;;;;5.78;2.90;;;17.50;99.90;;;;;;5011884;28;20046;-72
2023/06/14 05:14:17;;;;;;;5.63;2.47;;;17.70;99.90;;;;;;5033710;28;20045;-71
2023/06/14 05:16:44;;;;;;;6.43;2.97;;;17.80;99.90;;;;;;5029716;28;20072;-73
2023/06/14 05:19:11;;;;;;;5.75;2.80;;;18.00;99.90;;;;;;5014299;28;20060;-72
2023/06/14 05:21:38;;;;;;;7.57;3.05;;;18.10;99.90;;;;;;5016309;28;20574;-72
2023/06/14 05:24:06;;;;;;;9.13;3.30;;;18.10;99.90;;;;;;5033918;28;20053;-70
2023/06/14 05:26:35;;;;;;;7.40;3.30;;;18.20;99.90;;;;;;5033231;28;20046;-70
2023/06/14 05:29:02;;;;;;;6.68;3.22;;;18.10;99.90;;;;;;5033431;28;20053;-71
2023/06/14 05:31:29;;;;;;;5.65;3.67;;;17.90;99.90;;;;;;5029401;28;20053;-70
2023/06/14 05:33:56;;;;;;;6.18;3.67;;;17.80;99.90;;;;;;5032365;28;20049;-70
2023/06/14 05:36:23;;;;;;;9.05;4.22;;;18.00;99.90;;;;;;4987534;28;20057;-69
2023/06/14 05:38:51;;;;;;;6.30;3.22;;;18.00;99.90;;;;;;5031879;28;20053;-71
2023/06/14 05:41:18;;;;;;;6.45;3.80;;;18.00;99.90;;;;;;5034150;28;20045;-71
2023/06/14 05:43:46;;;;;;;5.78;3.30;;;18.10;99.90;;;;;;5030684;28;20049;-73
2023/06/14 05:46:13;;;;;;;5.95;3.67;;;18.10;99.90;;;;;;5033616;28;20574;-70
2023/06/14 05:48:39;;;;;;;5.65;4.00;;;18.30;99.90;;;;;;5032747;28;20053;-70
2023/06/14 05:51:08;;;;;;;9.15;3.47;;;18.40;99.90;;;;;;5034211;28;20103;-71
2023/06/14 05:53:35;;;;;;;7.45;3.47;;;18.60;99.90;;;;;;5032275;28;20053;-71
2023/06/14 05:56:02;;;;;;;8.70;3.60;;;18.70;99.90;;;;;;5032493;28;20060;-69
2023/06/14 05:58:29;;;;;;;6.82;3.45;;;18.80;99.40;;;;;;5034537;28;20046;-69
2023/06/14 06:00:57;;;;;;;5.38;3.35;;;18.90;99.10;;;;;;5041161;28;20061;-70
2023/06/14 06:03:24;;;;;;;8.48;3.67;;;19.00;98.40;;;;;;5033045;28;20049;-70
2023/06/14 06:05:51;;;;;;;5.53;3.63;;;19.20;98.30;;;;;;5032252;28;20042;-71
2023/06/14 06:08:18;;;;;;;5.03;3.50;;;19.40;98.40;;;;;;5033771;28;20745;-71
2023/06/14 06:10:45;;;;;;;6.72;3.50;;;19.60;98.30;;;;;;5034387;28;20045;-70
2023/06/14 06:13:12;;;;;;;8.60;4.32;;;19.70;97.90;;;;;;5033591;28;20571;-70
2023/06/14 06:15:39;;;;;;;6.53;3.45;;;19.80;97.40;;;;;;5032493;28;20050;-71
2023/06/14 06:18:07;;;;;;;6.88;3.53;;;20.00;96.70;;;;;;5033464;28;20053;-70
2023/06/14 06:20:35;;;;;;;7.95;3.58;;;20.10;96.40;;;;;;5028599;28;20559;-70
2023/06/14 06:23:03;;;;;;;7.40;3.25;;;20.20;95.40;;;;;;5032328;28;20057;-70
2023/06/14 06:25:31;;;;;;;7.45;3.50;;;20.30;95.60;;;;;;5015507;28;20445;-70
2023/06/14 06:27:58;;;;;;;10.98;3.08;;;20.40;95.40;;;;;;5033706;28;20477;-71
2023/06/14 06:30:26;;;;;;;8.38;3.28;;;20.60;95.00;;;;;;5034499;28;20049;-70
2023/06/14 06:32:53;;;;;;;8.20;2.83;;;20.70;94.20;;;;;;5032760;28;20449;-71
2023/06/14 06:35:21;;;;;;;5.90;2.97;;;20.80;94.50;;;;;;5033278;28;20064;-71
2023/06/14 06:37:48;;;;;;;8.93;2.95;;;20.90;94.10;;;;;;5034124;28;20092;-70
2023/06/14 06:40:15;;;;;;;5.43;3.20;;;21.10;94.30;;;;;;5031728;28;20041;-71
2023/06/14 06:42:42;;;;;;;5.78;3.10;;;21.30;94.10;;;;;;5033100;28;20468;-70
2023/06/14 06:45:10;;;;;;;7.70;3.08;;;21.50;93.50;;;;;;5032694;28;20045;-71
2023/06/14 06:47:37;;;;;;;6.55;3.00;;;21.60;93.00;;;;;;5034137;28;20064;-71
2023/06/14 06:50:06;;;;;;;5.45;2.72;;;21.80;92.70;;;;;;5034385;28;20049;-72
2023/06/14 06:52:34;;;;;;;16.08;3.08;;;22.00;92.30;;;;;;5032096;28;20067;-71
2023/06/14 06:55:03;;;;;;;7.20;2.60;;;22.30;91.90;;;;;;5032670;28;20119;-71
2023/06/14 06:57:30;;;;;;;6.70;2.92;;;22.40;91.50;;;;;;5032851;28;20080;-72
2023/06/14 06:59:58;;;;;;;6.07;2.58;;;22.70;91.10;;;;;;5031930;28;20053;-72
2023/06/14 07:02:24;;;;;;;6.10;2.63;;;22.90;90.40;;;;;;5032665;28;20042;-70
2023/06/14 07:04:51;;;;;;;8.38;2.78;;;23.30;90.10;;;;;;5030536;28;20045;-70
2023/06/14 07:07:18;;;;;;;6.10;2.25;;;23.60;89.80;;;;;;5031799;28;20465;-71
2023/06/14 07:09:46;;;;;;;8.90;2.42;;;24.00;89.20;;;;;;5033738;28;20049;-72
2023/06/14 07:12:16;;;;;;;7.93;2.42;;;24.20;87.90;;;;;;5031481;28;20041;-71
2023/06/14 07:14:46;;;;;;;6.55;2.15;;;24.40;86.60;;;;;;5033425;28;20045;-71
2023/06/14 07:17:13;;;;;;;3.97;2.03;;;24.70;85.40;;;;;;5031924;28;20087;-71
2023/06/14 07:19:40;;;;;;;5.97;2.30;;;24.80;84.60;;;;;;5032787;28;20103;-71
2023/06/14 07:22:07;;;;;;;6.28;2.55;;;25.00;84.60;;;;;;5031374;28;20061;-72
2023/06/14 07:24:36;;;;;;;5.25;2.00;;;25.00;83.00;;;;;;5033576;28;20058;-71
2023/06/14 07:27:04;;;;;;;5.07;2.40;;;25.20;82.30;;;;;;5030044;28;20131;-71
2023/06/14 07:29:31;;;;;;;4.13;1.73;;;25.60;80.40;;;;;;5031922;28;20081;-72
2023/06/14 07:31:58;;;;;;;7.55;2.33;;;25.60;80.70;;;;;;5033207;28;20049;-71
2023/06/14 07:34:26;;;;;;;3.13;2.05;;;25.90;80.30;;;;;;5031556;28;20555;-71
2023/06/14 07:36:54;;;;;;;4.70;2.45;;;25.90;79.10;;;;;;5032102;28;20041;-71
2023/06/14 07:39:21;;;;;;;8.38;2.05;;;26.30;79.40;;;;;;5029707;28;20053;-71
2023/06/14 07:41:47;;;;;;;4.25;1.90;;;26.30;79.10;;;;;;5031209;28;20057;-72
2023/06/14 07:44:16;;;;;;;2.92;1.83;;;26.50;78.60;;;;;;5033211;28;20053;-71
2023/06/14 07:46:43;;;;;;;4.30;1.75;;;27.00;77.40;;;;;;5032040;28;20061;-71
2023/06/14 07:49:10;;;;;;;4.80;1.85;;;27.00;78.00;;;;;;5031550;28;20053;-71
2023/06/14 07:51:37;;;;;;;10.63;2.45;;;27.10;77.40;;;;;;5036251;28;20121;-71
2023/06/14 07:54:07;;;;;;;9.45;2.40;;;27.20;76.60;;;;;;5041259;28;20072;-71
2023/06/14 07:56:33;;;;;;;3.03;2.03;;;27.60;76.80;;;;;;5034068;28;20037;-71
2023/06/14 07:59:00;;;;;;;9.43;3.78;;;27.80;76.20;;;;;;5032701;28;20085;-71
2023/06/14 08:01:28;;;;;;;3.08;2.08;;;28.00;75.40;;;;;;5031921;28;20136;-71
2023/06/14 08:03:55;;;;;;;8.10;2.03;;;28.20;75.10;;;;;;5032190;28;20056;-71
2023/06/14 08:06:22;;;;;;;4.93;2.20;;;28.30;74.90;;;;;;5031918;28;20041;-72
2023/06/14 08:08:49;;;;;;;15.57;2.20;;;28.20;74.40;;;;;;5033092;28;20054;-71
2023/06/14 08:11:16;;;;;;;6.97;2.17;;;28.20;74.20;;;;;;5030973;28;20095;-71
2023/06/14 08:13:43;;;;;;;4.40;2.33;;;28.40;73.60;;;;;;5028273;28;20053;-72
2023/06/14 08:16:10;;;;;;;8.13;2.38;;;28.20;73.70;;;;;;5031651;28;20046;-71
2023/06/14 08:18:38;;;;;;;5.35;1.90;;;28.40;74.80;;;;;;5030982;28;20060;-72
2023/06/14 08:21:07;;;;;;;4.82;1.70;;;28.70;73.10;;;;;;5031424;28;20049;-71
2023/06/14 08:23:34;;;;;;;4.38;1.83;;;28.50;72.80;;;;;;5031946;28;20115;-71
2023/06/14 08:26:01;;;;;;;8.00;1.90;;;28.60;72.70;;;;;;5015158;28;20045;-72
2023/06/14 08:28:28;;;;;;;5.00;2.05;;;28.80;72.40;;;;;;5032263;28;20500;-71
2023/06/14 08:30:55;;;;;;;5.03;1.95;;;28.70;71.90;;;;;;5031968;28;20053;-72
2023/06/14 08:33:22;;;;;;;5.57;1.70;;;28.70;71.20;;;;;;5014996;28;20063;-72
2023/06/14 08:35:50;;;;;;;4.70;1.60;;;29.00;71.30;;;;;;5033111;28;20050;-70
2023/06/14 08:38:17;;;;;;;5.72;2.20;;;28.60;70.20;;;;;;5013169;28;20060;-71
2023/06/14 08:40:48;;;;;;;5.30;1.92;;;28.90;71.10;;;;;;5033354;28;20080;-72
2023/06/14 08:43:15;;;;;;;3.70;1.90;;;29.30;70.40;;;;;;5015434;28;20103;-71
2023/06/14 08:45:42;;;;;;;6.18;2.10;;;29.50;70.00;;;;;;5016100;28;20496;-71
2023/06/14 08:48:09;;;;;;;3.85;1.67;;;29.60;69.70;;;;;;5054695;28;20049;-71
2023/06/14 08:50:41;;;;;;;4.05;1.70;;;29.70;70.60;;;;;;5057161;28;20114;-70
2023/06/14 08:53:14;;;;;;;4.80;1.73;;;30.20;69.50;;;;;;5059461;28;20041;-72
2023/06/14 08:55:41;;;;;;;5.32;2.05;;;30.30;69.30;;;;;;5060001;28;20057;-70
2023/06/14 08:58:09;;;;;;;3.85;1.70;;;30.50;69.50;;;;;;5043034;28;20034;-71
2023/06/14 09:00:38;;;;;;;8.10;1.70;;;30.00;67.90;;;;;;5042312;28;20033;-71
2023/06/14 09:03:12;;;;;;;2.83;1.33;;;29.60;67.40;;;;;;5047587;28;20060;-71
2023/06/14 09:05:39;;;;;;;4.78;1.38;;;29.80;68.40;;;;;;5018232;28;20083;-71
2023/06/14 09:08:06;;;;;;;2.75;1.67;;;29.90;68.50;;;;;;5036577;28;20068;-71
2023/06/14 09:10:37;;;;;;;6.63;1.70;;;30.10;67.90;;;;;;5018732;28;20115;-71
2023/06/14 09:13:04;;;;;;;3.10;1.48;;;30.00;67.40;;;;;;5035818;28;20105;-72
2023/06/14 09:15:31;;;;;;;4.97;1.77;;;29.80;67.50;;;;;;5034153;28;20042;-70
2023/06/14 09:17:58;;;;;;;4.15;1.58;;;30.00;67.50;;;;;;5018025;28;20390;-71
2023/06/14 09:20:25;;;;;;;5.57;2.00;;;29.90;67.70;;;;;;5017966;28;20053;-71
2023/06/14 09:22:52;;;;;;;4.93;1.70;;;30.00;68.10;;;;;;5031750;28;20081;-70
2023/06/14 09:25:19;;;;;;;7.85;1.98;;;30.30;69.10;;;;;;5034956;28;20447;-72
2023/06/14 09:27:48;;;;;;;4.28;1.65;;;30.40;68.60;;;;;;5034153;28;20037;-71
2023/06/14 09:30:15;;;;;;;7.50;1.80;;;30.20;68.60;;;;;;5038414;28;20057;-72
2023/06/14 09:32:42;;;;;;;3.72;1.42;;;30.30;68.80;;;;;;5058836;28;20048;-71
2023/06/14 09:35:10;;;;;;;7.97;1.88;;;30.70;68.90;;;;;;5057190;28;20025;-71
2023/06/14 09:37:38;;;;;;;4.18;1.63;;;30.60;68.30;;;;;;5054763;28;20084;-71
2023/06/14 09:40:09;;;;;;;3.42;1.40;;;30.60;67.80;;;;;;5058516;28;20040;-73
2023/06/14 09:42:36;;;;;;;4.72;1.60;;;30.20;67.00;;;;;;5054274;28;20334;-70
2023/06/14 09:45:05;;;;;;;8.10;1.98;;;30.60;67.50;;;;;;5052528;28;20099;-70
2023/06/14 09:47:32;;;;;;;;;;;30.80;66.10;;;;;;5057442;28;20049;-71
2023/06/14 09:50:00;;;;;;;5.78;1.60;;;30.80;65.30;;;;;;5057575;28;19929;-70
2023/06/14 09:52:29;;;;;;;7.22;1.73;;;30.90;66.20;;;;;;5040360;28;20046;-70
2023/06/14 09:54:56;;;;;;;3.15;1.58;;;31.20;66.20;;;;;;5032523;28;20041;-72
2023/06/14 09:57:25;;;;;;;4.15;1.80;;;31.30;67.20;;;;;;5034014;28;20103;-71
2023/06/14 09:59:57;;;;;;;3.17;1.70;;;31.00;66.80;;;;;;5018293;28;20408;-72
2023/06/14 10:02:27;;;;;;;8.88;1.83;;;30.90;66.40;;;;;;5033174;28;20049;-71
2023/06/14 10:05:02;;;;;;;4.13;1.70;;;31.10;66.80;;;;;;5035125;28;20050;-71
2023/06/14 10:07:33;;;;;;;3.60;1.48;;;31.50;66.40;;;;;;5034954;28;20386;-72
2023/06/14 10:10:01;;;;;;;5.20;1.77;;;31.60;66.10;;;;;;5033422;28;20133;-71
2023/06/14 10:12:28;;;;;;;2.30;1.50;;;31.20;65.70;;;;;;5034942;28;20485;-72
2023/06/14 10:14:56;;;;;;;2.90;1.45;;;31.10;64.90;;;;;;5033668;28;20053;-72
2023/06/14 10:17:36;;;;;;;3.10;1.75;;;31.10;65.30;;;;;;5033254;28;20041;-71
2023/06/14 10:20:18;;;;;;;5.90;1.67;;;31.40;65.00;;;;;;5034692;28;20049;-72
2023/06/14 10:22:50;;;;;;;5.30;1.70;;;31.30;64.60;;;;;;5034555;28;20050;-73
2023/06/14 10:25:27;;;;;;;5.90;1.48;;;31.10;65.10;;;;;;5031900;28;20056;-72
2023/06/14 10:28:02;;;;;;;2.85;1.50;;;31.20;65.10;;;;;;5017075;28;20049;-71
2023/06/14 10:30:29;;;;;;;4.65;1.65;;;31.30;65.50;;;;;;5016321;28;20045;-72
2023/06/14 10:33:09;;;;;;;3.42;1.38;;;31.20;64.40;;;;;;5034634;28;20045;-71
2023/06/14 10:35:36;;;;;;;3.40;1.60;;;31.50;64.90;;;;;;5019622;28;20056;-72
2023/06/14 10:38:10;;;;;;;4.70;1.52;;;31.50;64.50;;;;;;5021784;28;20053;-71
2023/06/14 10:40:38;;;;;;;5.90;1.60;;;31.60;63.80;;;;;;5006918;28;20049;-71
2023/06/14 10:43:23;;;;;;;3.30;1.73;;;31.60;64.30;;;;;;5028278;28;20492;-71
2023/06/14 10:46:15;;;;;;;4.55;1.60;;;31.90;65.00;;;;;;5031415;28;20132;-71
2023/06/14 10:48:44;;;;;;;2.83;1.58;;;31.90;64.60;;;;;;5034352;28;20081;-71
2023/06/14 10:51:20;;;;;;;5.97;1.58;;;31.90;64.40;;;;;;5015796;28;20049;-71
2023/06/14 10:53:48;;;;;;;4.95;1.60;;;32.00;65.70;;;;;;5016282;28;20091;-72
2023/06/14 10:56:28;;;;;;;10.83;1.60;;;32.40;64.30;;;;;;5034197;28;20041;-72
2023/06/14 10:58:56;;;;;;;5.93;1.63;;;32.40;64.30;;;;;;5033565;28;20046;-72
2023/06/14 11:01:33;;;;;;;4.03;1.55;;;31.90;64.20;;;;;;5016307;28;20057;-71
2023/06/14 11:04:09;;;;;;;4.22;1.45;;;32.30;63.90;;;;;;5016408;28;20045;-72
2023/06/14 11:06:48;;;;;;;4.18;1.48;;;32.00;63.70;;;;;;5015967;28;20045;-71
2023/06/14 11:09:50;;;;;;;3.25;1.55;;;32.50;64.40;;;;;;5016096;28;20487;-72
2023/06/14 11:12:18;;;;;;;5.68;1.75;;;32.00;64.10;;;;;;5015625;28;20119;-71
2023/06/14 11:14:47;;;;;;;5.72;1.52;;;31.80;63.20;;;;;;5011609;28;20050;-72
2023/06/14 11:17:15;;;;;;;4.60;1.40;;;31.60;63.30;;;;;;5015712;28;20053;-71
2023/06/14 11:19:45;;;;;;;4.60;1.85;;;31.40;63.30;;;;;;5032825;28;20053;-71
2023/06/14 11:22:16;;;;;;;;;;;31.80;63.60;;;;;;5020182;28;20049;-71
2023/06/14 11:24:44;;;;;;;4.28;1.42;;;32.00;63.60;;;;;;5031468;28;19948;-71
2023/06/14 11:27:12;;;;;;;5.15;1.50;;;32.40;64.50;;;;;;5033048;28;20047;-71
2023/06/14 11:29:49;;;;;;;2.72;1.30;;;31.90;63.80;;;;;;5032112;28;20093;-71
2023/06/14 11:32:16;;;;;;;4.82;1.50;;;31.70;63.70;;;;;;5033557;28;20378;-72
2023/06/14 11:34:47;;;;;;;4.65;1.17;;;31.50;64.00;;;;;;5031622;28;20111;-70
2023/06/14 11:37:14;;;;;;;2.88;1.33;;;31.70;62.90;;;;;;5031068;28;20106;-71
2023/06/14 11:39:45;;;;;;;4.25;1.40;;;31.60;62.90;;;;;;5023062;28;20049;-71
2023/06/14 11:42:16;;;;;;;11.57;1.80;;;31.70;63.30;;;;;;5029664;28;20068;-71
2023/06/14 11:44:43;;;;;;;4.65;1.00;;;32.10;62.60;;;;;;5031919;28;20551;-72
2023/06/14 11:47:10;;;;;;;4.82;1.25;;;32.40;63.30;;;;;;5033089;28;20543;-71
2023/06/14 11:49:37;;;;;;;3.78;1.40;;;33.10;63.60;;;;;;5031066;28;20053;-71
2023/06/14 11:52:06;;;;;;;4.70;1.27;;;33.00;62.60;;;;;;5031946;28;20504;-71
2023/06/14 11:54:33;;;;;;;3.60;1.10;;;33.00;61.50;;;;;;5032511;28;20524;-72
2023/06/14 11:57:00;;;;;;;3.17;1.40;;;32.60;61.90;;;;;;5032453;28;20131;-71
2023/06/14 11:59:28;;;;;;;2.78;1.08;;;32.80;61.60;;;;;;5032898;28;20045;-71
2023/06/14 12:01:55;;;;;;;2.85;1.40;;;32.50;61.50;;;;;;5032159;28;20041;-71
2023/06/14 12:04:26;;;;;;;15.43;2.60;;;32.60;61.00;;;;;;5031890;28;20053;-72
2023/06/14 12:06:55;;;;;;;21.02;2.80;;;32.50;61.00;;;;;;5031751;28;20077;-72
2023/06/14 12:09:25;;;;;;;5.68;1.55;;;32.50;61.10;;;;;;5031103;28;20489;-71
2023/06/14 12:12:02;;;;;;;4.57;1.35;;;32.30;61.00;;;;;;5031542;28;20057;-71
2023/06/14 12:14:29;;;;;;;2.10;1.20;;;32.10;61.10;;;;;;5033113;28;20184;-71
2023/06/14 12:17:06;;;;;;;6.47;1.40;;;32.20;61.90;;;;;;5032113;28;20052;-71
2023/06/14 12:19:33;;;;;;;11.60;1.98;;;32.70;61.50;;;;;;5032713;28;20045;-70
2023/06/14 12:22:04;;;;;;;13.10;2.90;;;32.80;60.90;;;;;;5029585;28;20115;-71
2023/06/14 12:24:33;;;;;;;61.50;6.93;;;32.60;61.60;;;;;;5032061;28;20492;-71
2023/06/14 12:27:02;;;;;;;3.20;1.40;;;32.20;60.70;;;;;;5032458;28;20045;-71
2023/06/14 12:29:29;;;;;;;3.45;1.25;;;31.30;61.10;;;;;;5032547;28;20136;-71
2023/06/14 12:31:56;;;;;;;3.15;1.20;;;31.40;61.10;;;;;;5031826;28;20049;-71
2023/06/14 12:34:24;;;;;;;5.25;1.30;;;31.60;61.30;;;;;;5014972;28;20493;-71
2023/06/14 12:36:51;;;;;;;16.15;2.58;;;31.80;62.30;;;;;;5029627;28;20049;-71
2023/06/14 12:39:18;;;;;;;17.20;2.78;;;32.00;62.00;;;;;;5032322;28;20045;-71
2023/06/14 12:41:46;;;;;;;2.97;0.98;;;32.00;61.50;;;;;;5032143;28;20053;-71
2023/06/14 12:44:14;;;;;;;4.17;1.23;;;32.10;61.50;;;;;;5014209;28;20508;-71
2023/06/14 12:46:42;;;;;;;4.45;1.50;;;31.50;61.40;;;;;;5014853;28;20053;-72
2023/06/14 12:49:10;;;;;;;2.60;1.30;;;31.20;61.80;;;;;;5014475;28;20049;-71
2023/06/14 12:51:37;;;;;;;4.07;1.05;;;31.60;62.30;;;;;;5031700;28;20045;-71
2023/06/14 12:54:04;;;;;;;3.10;1.10;;;32.00;62.00;;;;;;5032457;28;20045;-72